Time;durP1;ratioP1;P1;durP2;ratioP2;P2;SDS_P1;SDS_P2;PMS_P1;PMS_P2;Temp;Humidity;BMP_temperature;BMP_pressure;BME280_temperature;BME280_humidity;BME280_pressure;Samples;Min_cycle;Max_cycle;Signal;HPM_P1;HPM_P2
2024/03/28 00:02:05;;;;;;;;;;;;;;;;;;4940363;29;20010;-49
2024/03/28 00:04:31;;;;;;;;;;;;;;;;;;4948960;29;19954;-49
2024/03/28 00:06:57;;;;;;;;;;;;;;;;;;4938983;28;20032;-49
2024/03/28 00:09:23;;;;;;;;;;;;;;;;;;4948915;29;19949;-49
2024/03/28 00:11:49;;;;;;;;;;;;;;;;;;4940914;29;19997;-48
2024/03/28 00:14:15;;;;;;;;;;;;;;;;;;4943361;29;19965;-49
2024/03/28 00:16:42;;;;;;;;;;;;;;;;;;4948592;28;19942;-49
2024/03/28 00:19:08;;;;;;;;;;;;;;;;;;4953152;29;20274;-49
2024/03/28 00:21:34;;;;;;;;;;;;;;;;;;4953318;29;20362;-49
2024/03/28 00:24:00;;;;;;;;;;;;;;;;;;4952402;29;19961;-49
2024/03/28 00:26:26;;;;;;;;;;;;;;;;;;4942689;29;19965;-49
2024/03/28 00:28:52;;;;;;;;;;;;;;;;;;4951075;29;19973;-48
2024/03/28 00:31:18;;;;;;;;;;;;;;;;;;4931110;29;20359;-48
2024/03/28 00:33:44;;;;;;;;;;;;;;;;;;4949344;29;19913;-49
2024/03/28 00:36:10;;;;;;;;;;;;;;;;;;4961112;28;19914;-49
2024/03/28 00:38:36;;;;;;;;;;;;;;;;;;4950417;29;19965;-50
2024/03/28 00:41:02;;;;;;;;;;;;;;;;;;4947777;29;20412;-50
2024/03/28 00:43:28;;;;;;;;;;;;;;;;;;4951094;29;20294;-49
2024/03/28 00:45:54;;;;;;;;;;;;;;;;;;4951158;29;19953;-51
2024/03/28 00:48:20;;;;;;;;;;;;;;;;;;4950437;29;19953;-51
2024/03/28 00:50:46;;;;;;;;;;;;;;;;;;4951848;29;19914;-50
2024/03/28 00:53:12;;;;;;;;;;;;;;;;;;4950501;29;19945;-50
2024/03/28 00:55:38;;;;;;;;;;;;;;;;;;4943553;29;19946;-50
2024/03/28 00:58:04;;;;;;;;;;;;;;;;;;4948352;29;20354;-50
2024/03/28 01:00:30;;;;;;;;;;;;;;;;;;4946647;29;20394;-51
2024/03/28 01:02:56;;;;;;;;;;;;;;;;;;4950087;29;19973;-50
2024/03/28 01:05:22;;;;;;;;;;;;;;;;;;4951710;29;19949;-50
2024/03/28 01:07:48;;;;;;;;;;;;;;;;;;4950937;29;20006;-56
2024/03/28 01:10:13;;;;;;;;;;;;;;;;;;4948264;29;19964;-50
2024/03/28 01:12:39;;;;;;;;;;;;;;;;;;4950144;29;19969;-50
2024/03/28 01:15:05;;;;;;;;;;;;;;;;;;4947295;28;19957;-50
2024/03/28 01:17:31;;;;;;;;;;;;;;;;;;4943795;28;19966;-50
2024/03/28 01:19:57;;;;;;;;;;;;;;;;;;4952314;28;19960;-50
2024/03/28 01:22:23;;;;;;;;;;;;;;;;;;4952320;29;20338;-51
2024/03/28 01:24:49;;;;;;;;;;;;;;;;;;4950795;29;20390;-50
2024/03/28 01:27:16;;;;;;;;;;;;;;;;;;4951756;29;20025;-51
2024/03/28 01:29:42;;;;;;;;;;;;;;;;;;4950785;29;19946;-50
2024/03/28 01:32:08;;;;;;;;;;;;;;;;;;4951923;29;19974;-50
2024/03/28 01:34:34;;;;;;;;;;;;;;;;;;4952836;29;20386;-50
2024/03/28 01:37:00;;;;;;;;;;;;;;;;;;4950744;29;20244;-50
2024/03/28 01:39:26;;;;;;;;;;;;;;;;;;4948412;29;19953;-50
2024/03/28 01:41:51;;;;;;;;;;;;;;;;;;4950508;29;19961;-50
2024/03/28 01:44:17;;;;;;;;;;;;;;;;;;4948239;29;19945;-50
2024/03/28 01:46:43;;;;;;;;;;;;;;;;;;4944554;29;20088;-50
2024/03/28 01:49:09;;;;;;;;;;;;;;;;;;4945952;29;19993;-54
2024/03/28 01:51:35;;;;;;;;;;;;;;;;;;4941727;29;19949;-54
2024/03/28 01:54:01;;;;;;;;;;;;;;;;;;4942571;29;20353;-54
2024/03/28 01:56:27;;;;;;;;;;;;;;;;;;4945978;29;20340;-54
2024/03/28 01:58:53;;;;;;;;;;;;;;;;;;4940139;29;19946;-54
2024/03/28 02:01:19;;;;;;;;;;;;;;;;;;4938874;29;19946;-55
2024/03/28 02:03:45;;;;;;;;;;;;;;;;;;4929028;29;19968;-54
2024/03/28 02:06:11;;;;;;;;;;;;;;;;;;4943733;29;19965;-53
2024/03/28 02:08:36;;;;;;;;;;;;;;;;;;4947883;29;19953;-54
2024/03/28 02:11:02;;;;;;;;;;;;;;;;;;4946619;29;20363;-52
2024/03/28 02:13:28;;;;;;;;;;;;;;;;;;4948559;29;20394;-54
2024/03/28 02:15:54;;;;;;;;;;;;;;;;;;4949143;29;19956;-53
2024/03/28 02:18:20;;;;;;;;;;;;;;;;;;4947695;28;19961;-54
2024/03/28 02:20:46;;;;;;;;;;;;;;;;;;4946357;28;19957;-54
2024/03/28 02:23:12;;;;;;;;;;;;;;;;;;4949887;29;19957;-53
2024/03/28 02:25:38;;;;;;;;;;;;;;;;;;4947820;29;19950;-54
2024/03/28 02:28:04;;;;;;;;;;;;;;;;;;4950230;29;19938;-54
2024/03/28 02:30:30;;;;;;;;;;;;;;;;;;4946441;28;20387;-54
2024/03/28 02:32:56;;;;;;;;;;;;;;;;;;4951468;29;20366;-54
2024/03/28 02:35:22;;;;;;;;;;;;;;;;;;4950747;29;19956;-54
2024/03/28 02:37:47;;;;;;;;;;;;;;;;;;4949107;29;19946;-54
2024/03/28 02:40:13;;;;;;;;;;;;;;;;;;4945074;29;19946;-53
2024/03/28 02:42:39;;;;;;;;;;;;;;;;;;4943011;29;19958;-54
2024/03/28 02:45:05;;;;;;;;;;;;;;;;;;4941213;29;20361;-54
2024/03/28 02:47:31;;;;;;;;;;;;;;;;;;4948532;29;20367;-53
2024/03/28 02:49:57;;;;;;;;;;;;;;;;;;4937106;29;20722;-53
2024/03/28 02:52:23;;;;;;;;;;;;;;;;;;4949400;28;20009;-54
2024/03/28 02:54:49;;;;;;;;;;;;;;;;;;4939163;29;20013;-54
2024/03/28 02:57:15;;;;;;;;;;;;;;;;;;4949119;29;20010;-54
2024/03/28 02:59:41;;;;;;;;;;;;;;;;;;4943641;29;20353;-49
2024/03/28 03:02:07;;;;;;;;;;;;;;;;;;4938622;29;20594;-49
2024/03/28 03:04:33;;;;;;;;;;;;;;;;;;4944120;29;20386;-49
2024/03/28 03:06:59;;;;;;;;;;;;;;;;;;4938863;29;19930;-49
2024/03/28 03:09:25;;;;;;;;;;;;;;;;;;4940537;29;20375;-50
2024/03/28 03:11:51;;;;;;;;;;;;;;;;;;4942197;29;20369;-49
2024/03/28 03:14:17;;;;;;;;;;;;;;;;;;4946670;29;19958;-49
2024/03/28 03:16:43;;;;;;;;;;;;;;;;;;4944087;28;19914;-49
2024/03/28 03:19:10;;;;;;;;;;;;;;;;;;4945406;29;20018;-49
2024/03/28 03:21:36;;;;;;;;;;;;;;;;;;4938277;29;19925;-49
2024/03/28 03:24:03;;;;;;;;;;;;;;;;;;4947711;29;20360;-48
2024/03/28 03:26:30;;;;;;;;;;;;;;;;;;4943539;29;19915;-49
2024/03/28 03:34:35;;;;;;;;;;;;;;;;;;4944340;29;19989;-49
2024/03/28 03:37:01;;;;;;;;;;;;;;;;;;4936964;29;20283;-49
2024/03/28 03:39:28;;;;;;;;;;;;;;;;;;4945405;29;19918;-49
2024/03/28 03:41:54;;;;;;;;;;;;;;;;;;4934626;29;20312;-48
2024/03/28 03:44:20;;;;;;;;;;;;;;;;;;4942825;29;19972;-49
2024/03/28 03:46:45;;;;;;;;;;;;;;;;;;4931842;29;19957;-49
2024/03/28 03:49:11;;;;;;;;;;;;;;;;;;4944448;29;19934;-49
2024/03/28 03:51:38;;;;;;;;;;;;;;;;;;4945536;29;20068;-49
2024/03/28 03:54:04;;;;;;;;;;;;;;;;;;4953539;29;19933;-49
2024/03/28 03:56:30;;;;;;;;;;;;;;;;;;4952540;29;20378;-50
2024/03/28 03:58:56;;;;;;;;;;;;;;;;;;4952804;29;19917;-49
2024/03/28 04:01:23;;;;;;;;;;;;;;;;;;4950602;29;20021;-49
2024/03/28 04:03:48;;;;;;;;;;;;;;;;;;4948311;29;19922;-49
2024/03/28 04:06:15;;;;;;;;;;;;;;;;;;4941668;29;19950;-49
2024/03/28 04:08:41;;;;;;;;;;;;;;;;;;4946412;29;20354;-49
2024/03/28 04:11:07;;;;;;;;;;;;;;;;;;4953080;29;19916;-51
2024/03/28 04:13:32;;;;;;;;;;;;;;;;;;4950125;29;19972;-51
2024/03/28 04:15:58;;;;;;;;;;;;;;;;;;4945136;29;20068;-51
2024/03/28 04:18:24;;;;;;;;;;;;;;;;;;4951901;29;19965;-51
2024/03/28 04:20:50;;;;;;;;;;;;;;;;;;4950650;29;19969;-54
2024/03/28 04:23:16;;;;;;;;;;;;;;;;;;4951271;29;19949;-55
2024/03/28 04:25:42;;;;;;;;;;;;;;;;;;4951731;29;20315;-54
2024/03/28 04:28:09;;;;;;;;;;;;;;;;;;4953891;29;19966;-54
2024/03/28 04:30:36;;;;;;;;;;;;;;;;;;4949707;29;19914;-50
2024/03/28 04:33:02;;;;;;;;;;;;;;;;;;4943604;29;19939;-50
2024/03/28 04:35:28;;;;;;;;;;;;;;;;;;4941949;29;20033;-50
2024/03/28 04:37:54;;;;;;;;;;;;;;;;;;4939228;29;19998;-50
2024/03/28 04:40:20;;;;;;;;;;;;;;;;;;4950333;29;20017;-50
2024/03/28 04:42:50;;;;;;;;;;;;;;;;;;4943219;29;19997;-50
2024/03/28 04:45:17;;;;;;;;;;;;;;;;;;4945327;29;19918;-50
2024/03/28 04:47:43;;;;;;;;;;;;;;;;;;4943503;29;19910;-50
2024/03/28 04:50:09;;;;;;;;;;;;;;;;;;4942537;29;19989;-50
2024/03/28 04:52:35;;;;;;;;;;;;;;;;;;4940961;29;19946;-49
2024/03/28 04:55:01;;;;;;;;;;;;;;;;;;4942225;28;20272;-51
2024/03/28 04:57:27;;;;;;;;;;;;;;;;;;4943254;29;20362;-51
2024/03/28 04:59:53;;;;;;;;;;;;;;;;;;4945292;29;19949;-51
2024/03/28 05:02:19;;;;;;;;;;;;;;;;;;4945342;29;19953;-51
2024/03/28 05:04:45;;;;;;;;;;;;;;;;;;4951626;29;20009;-50
2024/03/28 05:07:11;;;;;;;;;;;;;;;;;;4948869;29;19953;-50
2024/03/28 05:09:37;;;;;;;;;;;;;;;;;;4946658;29;19968;-51
2024/03/28 05:12:03;;;;;;;;;;;;;;;;;;4942974;28;19965;-51
2024/03/28 05:14:30;;;;;;;;;;;;;;;;;;4936090;29;20024;-50
2024/03/28 05:16:56;;;;;;;;;;;;;;;;;;4944458;29;19972;-50
2024/03/28 05:19:22;;;;;;;;;;;;;;;;;;4942381;29;20355;-51
2024/03/28 05:21:47;;;;;;;;;;;;;;;;;;4950935;29;20395;-51
2024/03/28 05:24:13;;;;;;;;;;;;;;;;;;4943709;29;19954;-50
2024/03/28 05:26:39;;;;;;;;;;;;;;;;;;4949002;28;19949;-50
2024/03/28 05:29:05;;;;;;;;;;;;;;;;;;4952359;29;20241;-50
2024/03/28 05:31:31;;;;;;;;;;;;;;;;;;4948616;28;19946;-51
2024/03/28 05:33:57;;;;;;;;;;;;;;;;;;4948039;29;19977;-51
2024/03/28 05:36:24;;;;;;;;;;;;;;;;;;4945324;28;20403;-51
2024/03/28 05:38:50;;;;;;;;;;;;;;;;;;4946782;29;20202;-50
2024/03/28 05:41:16;;;;;;;;;;;;;;;;;;4949150;29;19969;-51
2024/03/28 05:43:42;;;;;;;;;;;;;;;;;;4945292;29;19954;-50
2024/03/28 05:46:08;;;;;;;;;;;;;;;;;;4944049;29;19962;-50
2024/03/28 05:48:34;;;;;;;;;;;;;;;;;;4943367;29;19950;-50
2024/03/28 05:50:59;;;;;;;;;;;;;;;;;;4944982;29;19954;-50
2024/03/28 05:53:26;;;;;;;;;;;;;;;;;;4937678;29;19946;-51
2024/03/28 05:55:52;;;;;;;;;;;;;;;;;;4945319;28;20396;-51
2024/03/28 05:58:17;;;;;;;;;;;;;;;;;;4945322;29;20024;-51
2024/03/28 06:00:43;;;;;;;;;;;;;;;;;;4944706;29;20021;-51
2024/03/28 06:03:09;;;;;;;;;;;;;;;;;;4945335;29;19964;-50
2024/03/28 06:05:35;;;;;;;;;;;;;;;;;;4932586;29;19977;-51
2024/03/28 06:08:01;;;;;;;;;;;;;;;;;;4941479;29;20308;-51
2024/03/28 06:10:27;;;;;;;;;;;;;;;;;;4940877;29;20386;-51
2024/03/28 06:12:53;;;;;;;;;;;;;;;;;;4941285;29;19955;-51
2024/03/28 06:15:19;;;;;;;;;;;;;;;;;;4941949;29;19962;-51
2024/03/28 06:17:45;;;;;;;;;;;;;;;;;;4947843;28;19970;-51
2024/03/28 06:20:11;;;;;;;;;;;;;;;;;;4940427;29;19957;-51
2024/03/28 06:22:38;;;;;;;;;;;;;;;;;;4951018;29;19961;-51
2024/03/28 06:25:04;;;;;;;;;;;;;;;;;;4942125;29;20263;-51
2024/03/28 06:27:30;;;;;;;;;;;;;;;;;;4933919;29;19961;-51
2024/03/28 06:29:55;;;;;;;;;;;;;;;;;;4947198;29;19997;-51
2024/03/28 06:32:24;;;;;;;;;;;;;;;;;;4947078;29;20036;-51
2024/03/28 06:34:50;;;;;;;;;;;;;;;;;;4948980;29;19912;-51
2024/03/28 06:37:16;;;;;;;;;;;;;;;;;;4949478;29;20376;-51
2024/03/28 06:39:42;;;;;;;;;;;;;;;;;;4942420;29;20394;-51
2024/03/28 06:42:08;;;;;;;;;;;;;;;;;;4941390;29;20028;-52
2024/03/28 06:44:34;;;;;;;;;;;;;;;;;;4946446;29;19953;-51
2024/03/28 06:47:00;;;;;;;;;;;;;;;;;;4945434;29;19957;-51
2024/03/28 06:49:26;;;;;;;;;;;;;;;;;;4942260;29;19945;-51
2024/03/28 06:51:52;;;;;;;;;;;;;;;;;;4943483;29;20658;-52
2024/03/28 06:54:20;;;;;;;;;;;;;;;;;;4939699;29;20363;-52
2024/03/28 06:56:46;;;;;;;;;;;;;;;;;;4939791;29;19918;-52
2024/03/28 06:59:12;;;;;;;;;;;;;;;;;;4940345;29;20008;-52
2024/03/28 07:01:38;;;;;;;;;;;;;;;;;;4946080;29;19981;-52
2024/03/28 07:04:04;;;;;;;;;;;;;;;;;;4929476;29;19977;-52
2024/03/28 07:06:30;;;;;;;;;;;;;;;;;;4928667;29;19972;-52
2024/03/28 07:08:56;;;;;;;;;;;;;;;;;;4927162;29;19980;-51
2024/03/28 07:11:22;;;;;;;;;;;;;;;;;;4922677;29;19977;-51
2024/03/28 07:13:48;;;;;;;;;;;;;;;;;;4921783;29;19967;-51
2024/03/28 07:16:14;;;;;;;;;;;;;;;;;;4916962;29;19950;-52
2024/03/28 07:18:40;;;;;;;;;;;;;;;;;;4922815;29;20025;-52
2024/03/28 07:21:06;;;;;;;;;;;;;;;;;;4921288;29;20415;-51
2024/03/28 07:23:32;;;;;;;;;;;;;;;;;;4923974;29;20370;-51
2024/03/28 07:25:58;;;;;;;;;;;;;;;;;;4924419;29;19953;-51
2024/03/28 07:28:23;;;;;;;;;;;;;;;;;;4926855;29;19978;-51
2024/03/28 07:30:49;;;;;;;;;;;;;;;;;;4924319;29;20498;-52
2024/03/28 07:33:15;;;;;;;;;;;;;;;;;;4931609;29;19958;-52
2024/03/28 07:35:41;;;;;;;;;;;;;;;;;;4931658;29;20283;-52
2024/03/28 07:38:07;;;;;;;;;;;;;;;;;;4923661;29;20396;-51
2024/03/28 07:40:34;;;;;;;;;;;;;;;;;;4910425;29;19934;-51
2024/03/28 07:42:59;;;;;;;;;;;;;;;;;;4924955;29;19953;-51
2024/03/28 07:45:26;;;;;;;;;;;;;;;;;;4926954;29;20394;-51
2024/03/28 07:47:51;;;;;;;;;;;;;;;;;;4919660;29;19920;-51
2024/03/28 07:50:17;;;;;;;;;;;;;;;;;;4925724;29;19954;-51
2024/03/28 07:52:43;;;;;;;;;;;;;;;;;;4921814;29;20319;-51
2024/03/28 07:55:09;;;;;;;;;;;;;;;;;;4924904;29;19954;-52
2024/03/28 07:57:35;;;;;;;;;;;;;;;;;;4929086;29;19958;-50
2024/03/28 08:00:01;;;;;;;;;;;;;;;;;;4927395;29;19946;-51
2024/03/28 08:02:27;;;;;;;;;;;;;;;;;;4932064;29;19961;-55
2024/03/28 08:04:53;;;;;;;;;;;;;;;;;;4931285;29;19954;-55
2024/03/28 08:07:19;;;;;;;;;;;;;;;;;;4929921;29;19961;-53
2024/03/28 08:09:46;;;;;;;;;;;;;;;;;;4942784;29;19961;-55
2024/03/28 08:12:14;;;;;;;;;;;;;;;;;;4944645;29;19993;-55
2024/03/28 08:14:40;;;;;;;;;;;;;;;;;;4931971;29;19919;-54
2024/03/28 08:17:07;;;;;;;;;;;;;;;;;;4935594;29;19984;-54
2024/03/28 08:19:33;;;;;;;;;;;;;;;;;;4936688;29;19966;-54
2024/03/28 08:22:00;;;;;;;;;;;;;;;;;;4937161;29;19926;-52
2024/03/28 08:24:30;;;;;;;;;;;;;;;;;;4952292;28;20149;-53
2024/03/28 08:26:56;;;;;;;;;;;;;;;;;;4953009;28;19942;-54
2024/03/28 08:29:22;;;;;;;;;;;;;;;;;;4952503;28;19977;-54
2024/03/28 08:31:48;;;;;;;;;;;;;;;;;;4954889;28;19965;-54
2024/03/28 08:34:14;;;;;;;;;;;;;;;;;;4957294;28;19962;-54
2024/03/28 08:36:40;;;;;;;;;;;;;;;;;;4954972;28;19958;-54
2024/03/28 08:39:07;;;;;;;;;;;;;;;;;;4957457;28;19958;-53
2024/03/28 08:41:33;;;;;;;;;;;;;;;;;;4967020;28;19918;-53
2024/03/28 08:43:58;;;;;;;;;;;;;;;;;;4955944;28;20373;-53
2024/03/28 08:46:24;;;;;;;;;;;;;;;;;;4952289;28;19960;-53
2024/03/28 08:48:51;;;;;;;;;;;;;;;;;;4958400;28;19966;-53
2024/03/28 08:51:21;;;;;;;;;;;;;;;;;;4958829;28;20286;-53
2024/03/28 08:53:47;;;;;;;;;;;;;;;;;;4956641;28;20373;-54
2024/03/28 08:56:13;;;;;;;;;;;;;;;;;;4953069;28;19910;-53
2024/03/28 08:58:39;;;;;;;;;;;;;;;;;;4957664;28;20290;-54
2024/03/28 09:01:06;;;;;;;;;;;;;;;;;;4954785;28;19918;-54
2024/03/28 09:03:32;;;;;;;;;;;;;;;;;;4938934;28;19927;-54
2024/03/28 09:05:58;;;;;;;;;;;;;;;;;;4931232;29;20327;-54
2024/03/28 09:08:24;;;;;;;;;;;;;;;;;;4931625;29;20357;-52
2024/03/28 09:10:49;;;;;;;;;;;;;;;;;;4930820;29;20092;-54
2024/03/28 09:13:15;;;;;;;;;;;;;;;;;;4934560;29;20510;-54
2024/03/28 09:15:41;;;;;;;;;;;;;;;;;;4929556;29;20333;-53
2024/03/28 09:18:07;;;;;;;;;;;;;;;;;;4931353;29;19954;-53
2024/03/28 09:20:33;;;;;;;;;;;;;;;;;;4932015;29;19961;-51
2024/03/28 09:23:00;;;;;;;;;;;;;;;;;;4932226;29;20018;-51
2024/03/28 09:25:26;;;;;;;;;;;;;;;;;;4935024;29;20012;-50
2024/03/28 09:27:52;;;;;;;;;;;;;;;;;;4931967;29;20069;-50
2024/03/28 09:30:18;;;;;;;;;;;;;;;;;;4935334;29;20006;-50
2024/03/28 09:32:45;;;;;;;;;;;;;;;;;;4933872;29;19985;-50
2024/03/28 09:35:11;;;;;;;;;;;;;;;;;;4928897;29;19977;-51
2024/03/28 09:37:37;;;;;;;;;;;;;;;;;;4914351;29;19942;-50
2024/03/28 09:40:03;;;;;;;;;;;;;;;;;;4946551;28;20042;-50
2024/03/28 09:42:29;;;;;;;;;;;;;;;;;;4922669;29;19918;-50
2024/03/28 09:44:55;;;;;;;;;;;;;;;;;;4939757;29;19965;-51
2024/03/28 09:47:21;;;;;;;;;;;;;;;;;;4919538;29;19954;-51
2024/03/28 09:49:47;;;;;;;;;;;;;;;;;;4934051;29;19956;-51
2024/03/28 09:52:13;;;;;;;;;;;;;;;;;;4938699;29;19949;-49
2024/03/28 09:54:39;;;;;;;;;;;;;;;;;;4934048;29;19974;-50
2024/03/28 09:57:04;;;;;;;;;;;;;;;;;;4937948;29;19986;-51
2024/03/28 09:59:32;;;;;;;;;;;;;;;;;;4935278;29;19966;-50
2024/03/28 10:01:58;;;;;;;;;;;;;;;;;;4941897;29;19918;-50
2024/03/28 10:04:24;;;;;;;;;;;;;;;;;;4932371;28;19942;-50
2024/03/28 10:06:50;;;;;;;;;;;;;;;;;;4954490;28;19950;-50
2024/03/28 10:09:16;;;;;;;;;;;;;;;;;;4957705;28;20415;-49
2024/03/28 10:11:42;;;;;;;;;;;;;;;;;;4954876;28;19990;-50
2024/03/28 10:14:08;;;;;;;;;;;;;;;;;;4951206;28;20260;-49
2024/03/28 10:16:35;;;;;;;;;;;;;;;;;;4951614;28;19966;-50
2024/03/28 10:19:01;;;;;;;;;;;;;;;;;;4962465;28;20380;-51
2024/03/28 10:21:27;;;;;;;;;;;;;;;;;;4955164;28;19921;-49
2024/03/28 10:23:53;;;;;;;;;;;;;;;;;;4955396;28;20370;-50
2024/03/28 10:26:19;;;;;;;;;;;;;;;;;;4953157;28;19950;-50
2024/03/28 10:28:45;;;;;;;;;;;;;;;;;;4952640;28;19991;-50
2024/03/28 10:31:10;;;;;;;;;;;;;;;;;;4957324;28;19954;-50
2024/03/28 10:33:36;;;;;;;;;;;;;;;;;;4954566;28;19960;-50
2024/03/28 10:36:02;;;;;;;;;;;;;;;;;;4946228;28;19946;-49
2024/03/28 10:38:28;;;;;;;;;;;;;;;;;;4940954;28;19910;-49
2024/03/28 10:40:57;;;;;;;;;;;;;;;;;;4954920;28;19969;-51
2024/03/28 10:43:23;;;;;;;;;;;;;;;;;;4949479;28;19929;-50
2024/03/28 10:45:49;;;;;;;;;;;;;;;;;;4952049;28;19953;-50
2024/03/28 10:48:15;;;;;;;;;;;;;;;;;;4954522;28;19962;-50
2024/03/28 10:50:41;;;;;;;;;;;;;;;;;;4950720;28;19964;-53
2024/03/28 10:53:07;;;;;;;;;;;;;;;;;;4947508;28;20346;-52
2024/03/28 10:55:33;;;;;;;;;;;;;;;;;;4950340;28;20013;-53
2024/03/28 10:57:59;;;;;;;;;;;;;;;;;;4952093;28;20076;-53
2024/03/28 11:00:25;;;;;;;;;;;;;;;;;;4931289;28;19965;-55
2024/03/28 11:02:51;;;;;;;;;;;;;;;;;;4953959;28;20020;-55
2024/03/28 11:05:17;;;;;;;;;;;;;;;;;;4955668;28;19976;-54
2024/03/28 11:07:43;;;;;;;;;;;;;;;;;;4951359;28;20378;-55
2024/03/28 11:10:09;;;;;;;;;;;;;;;;;;4954004;28;20379;-54
2024/03/28 11:12:36;;;;;;;;;;;;;;;;;;4950101;28;19980;-56
2024/03/28 11:15:04;;;;;;;;;;;;;;;;;;4931493;29;19918;-55
2024/03/28 11:17:30;;;;;;;;;;;;;;;;;;4957236;28;19918;-56
2024/03/28 11:19:56;;;;;;;;;;;;;;;;;;4949708;29;20775;-55
2024/03/28 11:22:22;;;;;;;;;;;;;;;;;;4949272;28;19919;-56
2024/03/28 11:24:48;;;;;;;;;;;;;;;;;;4949987;28;19973;-56
2024/03/28 11:27:14;;;;;;;;;;;;;;;;;;4948336;28;19994;-55
2024/03/28 11:29:40;;;;;;;;;;;;;;;;;;4951977;28;19959;-56
2024/03/28 11:32:06;;;;;;;;;;;;;;;;;;4950883;28;19957;-55
2024/03/28 11:34:32;;;;;;;;;;;;;;;;;;4951498;28;19953;-54
2024/03/28 11:36:58;;;;;;;;;;;;;;;;;;4949248;28;19938;-55
2024/03/28 11:39:24;;;;;;;;;;;;;;;;;;4951623;28;19917;-54
2024/03/28 11:41:50;;;;;;;;;;;;;;;;;;4949530;28;19978;-55
2024/03/28 11:44:16;;;;;;;;;;;;;;;;;;4952021;28;19941;-55
2024/03/28 11:46:42;;;;;;;;;;;;;;;;;;4950409;28;19957;-55
2024/03/28 11:49:07;;;;;;;;;;;;;;;;;;4950779;28;20374;-55
2024/03/28 11:51:33;;;;;;;;;;;;;;;;;;4952237;28;20429;-55
2024/03/28 11:54:02;;;;;;;;;;;;;;;;;;4951490;28;19965;-55
2024/03/28 11:56:28;;;;;;;;;;;;;;;;;;4953857;28;19919;-55
2024/03/28 11:58:54;;;;;;;;;;;;;;;;;;4953620;28;19918;-55
2024/03/28 12:01:20;;;;;;;;;;;;;;;;;;4950081;28;20400;-53
2024/03/28 12:03:47;;;;;;;;;;;;;;;;;;4950140;28;19953;-52
2024/03/28 12:06:12;;;;;;;;;;;;;;;;;;4954967;28;20009;-52
2024/03/28 12:08:38;;;;;;;;;;;;;;;;;;4955069;28;20437;-53
2024/03/28 12:11:04;;;;;;;;;;;;;;;;;;4955929;28;19965;-52
2024/03/28 12:13:30;;;;;;;;;;;;;;;;;;4952138;28;19950;-52
2024/03/28 12:15:56;;;;;;;;;;;;;;;;;;4952388;28;20004;-52
2024/03/28 12:18:22;;;;;;;;;;;;;;;;;;4953941;28;19961;-53
2024/03/28 12:20:48;;;;;;;;;;;;;;;;;;4951723;28;19949;-52
2024/03/28 12:23:14;;;;;;;;;;;;;;;;;;4950171;28;20401;-52
2024/03/28 12:25:40;;;;;;;;;;;;;;;;;;4953512;28;20387;-52
2024/03/28 12:28:06;;;;;;;;;;;;;;;;;;4947879;28;19964;-53
2024/03/28 12:30:32;;;;;;;;;;;;;;;;;;4956474;28;19968;-52
2024/03/28 12:32:58;;;;;;;;;;;;;;;;;;4950791;28;19965;-52
2024/03/28 12:35:23;;;;;;;;;;;;;;;;;;4952069;28;19956;-52
2024/03/28 12:37:49;;;;;;;;;;;;;;;;;;4952699;28;19966;-52
2024/03/28 12:40:18;;;;;;;;;;;;;;;;;;4953470;28;20021;-51
2024/03/28 12:42:44;;;;;;;;;;;;;;;;;;4951309;28;19926;-52
2024/03/28 12:45:10;;;;;;;;;;;;;;;;;;4951364;28;19942;-52
2024/03/28 12:47:36;;;;;;;;;;;;;;;;;;4949850;28;19983;-52
2024/03/28 12:50:02;;;;;;;;;;;;;;;;;;4948007;29;20014;-52
2024/03/28 12:52:28;;;;;;;;;;;;;;;;;;4947428;29;19958;-52
2024/03/28 12:54:54;;;;;;;;;;;;;;;;;;4949744;28;19961;-52
2024/03/28 12:57:20;;;;;;;;;;;;;;;;;;4946273;29;19950;-52
2024/03/28 12:59:46;;;;;;;;;;;;;;;;;;4952407;28;20374;-52
2024/03/28 13:02:12;;;;;;;;;;;;;;;;;;4952025;29;20022;-51
2024/03/28 13:04:38;;;;;;;;;;;;;;;;;;4961927;28;19953;-52
2024/03/28 13:07:05;;;;;;;;;;;;;;;;;;4954293;28;19934;-52
2024/03/28 13:09:31;;;;;;;;;;;;;;;;;;4953076;29;19911;-52
2024/03/28 13:11:57;;;;;;;;;;;;;;;;;;4950793;29;19964;-54
2024/03/28 13:14:23;;;;;;;;;;;;;;;;;;4950593;28;19957;-56
2024/03/28 13:16:49;;;;;;;;;;;;;;;;;;4951003;29;20459;-56
2024/03/28 13:19:15;;;;;;;;;;;;;;;;;;4957947;28;20373;-56
2024/03/28 13:21:41;;;;;;;;;;;;;;;;;;4956463;28;19960;-56
2024/03/28 13:24:10;;;;;;;;;;;;;;;;;;4947162;28;19941;-54
2024/03/28 13:26:35;;;;;;;;;;;;;;;;;;4935780;29;19937;-56
2024/03/28 13:29:02;;;;;;;;;;;;;;;;;;4952239;29;19950;-56
2024/03/28 13:31:28;;;;;;;;;;;;;;;;;;4951535;29;19911;-56
2024/03/28 13:33:54;;;;;;;;;;;;;;;;;;4955054;28;19980;-56
2024/03/28 13:36:20;;;;;;;;;;;;;;;;;;4950733;29;19961;-56
2024/03/28 13:38:46;;;;;;;;;;;;;;;;;;4957462;28;19910;-55
2024/03/28 13:41:12;;;;;;;;;;;;;;;;;;4951960;28;20016;-56
2024/03/28 13:43:38;;;;;;;;;;;;;;;;;;4955392;28;19978;-55
2024/03/28 13:46:04;;;;;;;;;;;;;;;;;;4956426;28;19954;-55
2024/03/28 13:48:32;;;;;;;;;;;;;;;;;;4954645;28;19918;-55
2024/03/28 13:50:58;;;;;;;;;;;;;;;;;;4945855;29;19910;-56
2024/03/28 13:53:24;;;;;;;;;;;;;;;;;;4956087;28;19911;-56
2024/03/28 13:55:50;;;;;;;;;;;;;;;;;;4946562;28;19919;-55
2024/03/28 13:58:16;;;;;;;;;;;;;;;;;;4946565;28;20274;-56
2024/03/28 14:00:42;;;;;;;;;;;;;;;;;;4947129;29;19917;-56
2024/03/28 14:03:08;;;;;;;;;;;;;;;;;;4955474;28;20012;-55
2024/03/28 14:05:34;;;;;;;;;;;;;;;;;;4950839;28;19958;-56
2024/03/28 14:08:00;;;;;;;;;;;;;;;;;;4951599;28;19952;-56
2024/03/28 14:10:26;;;;;;;;;;;;;;;;;;4961966;28;19957;-56
2024/03/28 14:12:52;;;;;;;;;;;;;;;;;;4938987;28;19945;-55
2024/03/28 14:15:18;;;;;;;;;;;;;;;;;;4948768;28;19954;-56
2024/03/28 14:17:43;;;;;;;;;;;;;;;;;;4947588;29;19954;-56
2024/03/28 14:20:09;;;;;;;;;;;;;;;;;;4950896;28;19964;-55
2024/03/28 14:22:35;;;;;;;;;;;;;;;;;;4951271;28;19956;-53
2024/03/28 14:25:01;;;;;;;;;;;;;;;;;;4940955;29;19964;-52
2024/03/28 14:27:27;;;;;;;;;;;;;;;;;;4939601;28;20275;-51
2024/03/28 14:29:54;;;;;;;;;;;;;;;;;;4947541;29;19918;-51
2024/03/28 14:32:20;;;;;;;;;;;;;;;;;;4943028;29;20005;-52
2024/03/28 14:34:47;;;;;;;;;;;;;;;;;;4924403;29;20347;-51
2024/03/28 14:37:12;;;;;;;;;;;;;;;;;;4938946;28;20051;-51
2024/03/28 14:39:38;;;;;;;;;;;;;;;;;;4945366;29;20001;-50
2024/03/28 14:42:04;;;;;;;;;;;;;;;;;;4948059;29;20091;-51
2024/03/28 14:44:30;;;;;;;;;;;;;;;;;;4943142;29;19981;-51
2024/03/28 14:46:56;;;;;;;;;;;;;;;;;;4935995;29;20173;-50
2024/03/28 14:49:22;;;;;;;;;;;;;;;;;;4945556;28;20359;-51
2024/03/28 14:51:50;;;;;;;;;;;;;;;;;;4940721;28;19914;-57
2024/03/28 14:54:18;;;;;;;;;;;;;;;;;;4943238;28;19997;-51
2024/03/28 14:56:44;;;;;;;;;;;;;;;;;;4944903;29;19917;-51
2024/03/28 14:59:10;;;;;;;;;;;;;;;;;;4941125;29;19937;-52
2024/03/28 15:01:36;;;;;;;;;;;;;;;;;;4942890;28;20277;-52
2024/03/28 15:04:02;;;;;;;;;;;;;;;;;;4933971;29;20426;-53
2024/03/28 15:06:28;;;;;;;;;;;;;;;;;;4939575;29;19953;-52
2024/03/28 15:08:53;;;;;;;;;;;;;;;;;;4943156;28;19952;-51
2024/03/28 15:11:19;;;;;;;;;;;;;;;;;;4943137;29;19965;-52
2024/03/28 15:13:46;;;;;;;;;;;;;;;;;;4940317;29;19954;-52
2024/03/28 15:16:12;;;;;;;;;;;;;;;;;;4938746;29;19973;-52
2024/03/28 15:18:38;;;;;;;;;;;;;;;;;;4943243;29;20289;-52
2024/03/28 15:21:05;;;;;;;;;;;;;;;;;;4937599;29;19916;-52
2024/03/28 15:23:30;;;;;;;;;;;;;;;;;;4942573;28;19914;-52
2024/03/28 15:25:56;;;;;;;;;;;;;;;;;;4940542;29;20611;-52
2024/03/28 15:28:22;;;;;;;;;;;;;;;;;;4944415;28;19914;-51
2024/03/28 15:30:48;;;;;;;;;;;;;;;;;;4946430;28;19953;-54
2024/03/28 15:33:14;;;;;;;;;;;;;;;;;;4939157;29;19950;-53
2024/03/28 15:35:40;;;;;;;;;;;;;;;;;;4939669;29;19979;-53
2024/03/28 15:38:06;;;;;;;;;;;;;;;;;;4938138;28;19969;-53
2024/03/28 15:40:32;;;;;;;;;;;;;;;;;;4944148;29;19960;-53
2024/03/28 15:42:58;;;;;;;;;;;;;;;;;;4945888;29;19922;-53
2024/03/28 15:45:24;;;;;;;;;;;;;;;;;;4949915;29;19964;-53
2024/03/28 15:47:50;;;;;;;;;;;;;;;;;;4952133;29;19934;-53
2024/03/28 15:50:16;;;;;;;;;;;;;;;;;;4952106;29;19969;-53
2024/03/28 15:52:41;;;;;;;;;;;;;;;;;;4953109;28;19945;-53
2024/03/28 15:55:07;;;;;;;;;;;;;;;;;;4941569;28;19949;-53
2024/03/28 15:57:33;;;;;;;;;;;;;;;;;;4948607;29;20383;-53
2024/03/28 15:59:59;;;;;;;;;;;;;;;;;;4947013;29;19961;-53
2024/03/28 16:02:25;;;;;;;;;;;;;;;;;;4950497;28;19974;-53
2024/03/28 16:04:51;;;;;;;;;;;;;;;;;;4951476;28;19964;-53
2024/03/28 16:07:17;;;;;;;;;;;;;;;;;;4951121;29;19953;-53
2024/03/28 16:09:44;;;;;;;;;;;;;;;;;;4952637;28;19964;-52
2024/03/28 16:12:10;;;;;;;;;;;;;;;;;;4949904;29;19914;-53
2024/03/28 16:14:35;;;;;;;;;;;;;;;;;;4949101;28;19969;-53
2024/03/28 16:17:01;;;;;;;;;;;;;;;;;;4953793;28;19958;-52
2024/03/28 16:19:29;;;;;;;;;;;;;;;;;;4963056;28;19969;-52
2024/03/28 16:21:55;;;;;;;;;;;;;;;;;;4954069;28;19918;-52
2024/03/28 16:24:21;;;;;;;;;;;;;;;;;;4955801;28;19997;-53
2024/03/28 16:26:47;;;;;;;;;;;;;;;;;;4956456;28;20016;-53
2024/03/28 16:29:13;;;;;;;;;;;;;;;;;;4959232;28;19972;-53
2024/03/28 16:31:39;;;;;;;;;;;;;;;;;;4956314;28;20322;-53
2024/03/28 16:34:05;;;;;;;;;;;;;;;;;;4953463;28;19910;-52
2024/03/28 16:36:31;;;;;;;;;;;;;;;;;;4955535;28;19977;-53
2024/03/28 16:39:00;;;;;;;;;;;;;;;;;;4954392;28;19958;-53
2024/03/28 16:41:26;;;;;;;;;;;;;;;;;;4951367;28;19917;-53
2024/03/28 16:43:54;;;;;;;;;;;;;;;;;;4957760;28;19918;-55